createdAt,value
2023-02-02T00:00:58.443Z,97565.31
2023-02-02T00:03:24.797Z,97571.84
2023-02-02T00:05:51.189Z,97564.75
2023-02-02T00:08:17.589Z,97559.50
2023-02-02T00:10:43.951Z,97556.13
2023-02-02T00:13:10.286Z,97564.38
2023-02-02T00:15:36.680Z,97560.41
2023-02-02T00:18:03.030Z,97559.06
2023-02-02T00:20:29.416Z,97560.59
2023-02-02T00:22:55.808Z,97562.16
2023-02-02T00:25:22.445Z,97552.50
2023-02-02T00:27:48.960Z,97543.81
2023-02-02T00:30:15.351Z,97545.38
2023-02-02T00:32:41.690Z,97551.69
2023-02-02T00:35:08.069Z,97547.41
2023-02-02T00:37:34.479Z,97552.31
2023-02-02T00:40:00.863Z,97548.47
2023-02-02T00:42:27.229Z,97545.25
2023-02-02T00:44:53.558Z,97549.72
2023-02-02T00:47:19.901Z,97545.38
2023-02-02T00:49:46.272Z,97546.19
2023-02-02T00:52:12.629Z,97532.66
2023-02-02T00:54:39.016Z,97540.16
2023-02-02T00:57:05.404Z,97543.38
2023-02-02T00:59:31.765Z,97536.56
2023-02-02T01:01:58.201Z,97525.72
2023-02-02T01:04:24.627Z,97526.50
2023-02-02T01:06:50.982Z,97528.81
2023-02-02T01:09:17.359Z,97526.94
2023-02-02T01:11:43.737Z,97543.38
2023-02-02T01:14:10.088Z,97531.78
2023-02-02T01:16:36.472Z,97549.06
2023-02-02T01:19:02.832Z,97545.09
2023-02-02T01:21:29.186Z,97540.50
2023-02-02T01:23:55.576Z,97549.75
2023-02-02T01:26:21.940Z,97545.06
2023-02-02T01:28:48.297Z,97539.97
2023-02-02T01:31:14.669Z,97542.81
2023-02-02T01:33:41.015Z,97533.13
2023-02-02T01:36:07.403Z,97541.97
2023-02-02T01:38:33.751Z,97546.41
2023-02-02T01:41:00.139Z,97542.78
2023-02-02T01:43:26.527Z,97545.94
2023-02-02T01:45:52.940Z,97547.44
2023-02-02T01:48:19.346Z,97545.72
2023-02-02T01:50:45.723Z,97549.44
2023-02-02T01:53:12.056Z,97549.34
2023-02-02T01:55:38.447Z,97549.72
2023-02-02T01:58:04.792Z,97551.16
2023-02-02T02:00:31.127Z,97550.16
2023-02-02T02:02:57.508Z,97544.88
2023-02-02T02:05:24.082Z,97549.75
2023-02-02T02:07:50.607Z,97542.88
2023-02-02T02:10:16.997Z,97554.97
2023-02-02T02:12:43.332Z,97544.06
2023-02-02T02:15:09.714Z,97552.16
2023-02-02T02:17:36.100Z,97559.03
2023-02-02T02:20:02.481Z,97550.56
2023-02-02T02:22:28.840Z,97554.59
2023-02-02T02:24:55.205Z,97550.75
2023-02-02T02:27:21.604Z,97543.28
2023-02-02T02:29:48.094Z,97543.91
2023-02-02T02:32:14.449Z,97546.56
2023-02-02T02:34:40.788Z,97550.56
2023-02-02T02:37:07.112Z,97551.34
2023-02-02T02:39:33.444Z,97543.28
2023-02-02T02:41:59.819Z,97555.34
2023-02-02T02:44:26.220Z,97561.41
2023-02-02T02:46:52.592Z,97553.31
2023-02-02T02:49:18.967Z,97561.53
2023-02-02T02:51:45.355Z,97557.25
2023-02-02T02:54:11.707Z,97555.97
2023-02-02T02:56:38.107Z,97551.13
2023-02-02T02:59:04.531Z,97549.44
2023-02-02T03:01:30.927Z,97548.47
2023-02-02T03:03:57.342Z,97534.94
2023-02-02T03:06:23.735Z,97541.47
2023-02-02T03:08:50.106Z,97539.44
2023-02-02T03:11:16.452Z,97537.19
2023-02-02T03:13:42.785Z,97543.31
2023-02-02T03:16:09.144Z,97544.41
2023-02-02T03:18:35.543Z,97545.88
2023-02-02T03:21:01.890Z,97548.88
2023-02-02T03:23:28.227Z,97543.31
2023-02-02T03:25:54.553Z,97539.50
2023-02-02T03:28:20.959Z,97544.63
2023-02-02T03:30:47.349Z,97549.50
2023-02-02T03:33:13.727Z,97551.63
2023-02-02T03:35:40.105Z,97543.16
2023-02-02T03:38:06.445Z,97541.22
2023-02-02T03:40:32.764Z,97537.59
2023-02-02T03:42:59.137Z,97538.75
2023-02-02T03:45:25.838Z,97531.47
2023-02-02T03:47:52.390Z,97538.56
2023-02-02T03:50:18.717Z,97530.09
2023-02-02T03:52:45.114Z,97535.66
2023-02-02T03:55:11.452Z,97539.81
2023-02-02T03:57:37.791Z,97538.66
2023-02-02T04:00:04.168Z,97542.69
2023-02-02T04:02:30.591Z,97543.59
2023-02-02T04:04:56.992Z,97537.56
2023-02-02T04:07:23.342Z,97545.25
2023-02-02T04:09:49.678Z,97547.09
2023-02-02T04:12:16.058Z,97548.88
2023-02-02T04:14:42.433Z,97556.41
2023-02-02T04:17:08.826Z,97549.59
2023-02-02T04:19:35.217Z,97546.31
2023-02-02T04:22:01.616Z,97560.75
2023-02-02T04:24:27.994Z,97554.34
2023-02-02T04:26:54.366Z,97555.22
2023-02-02T04:29:20.729Z,97559.25
2023-02-02T04:31:47.119Z,97562.97
2023-02-02T04:34:13.528Z,97560.94
2023-02-02T04:36:40.015Z,97558.50
2023-02-02T04:39:06.396Z,97564.50
2023-02-02T04:41:32.746Z,97567.50
2023-02-02T04:43:59.095Z,97571.16
2023-02-02T04:46:25.485Z,97579.22
2023-02-02T04:48:51.840Z,97583.50
2023-02-02T04:51:18.191Z,97580.56
2023-02-02T04:53:44.569Z,97572.22
2023-02-02T04:56:10.931Z,97570.53
2023-02-02T04:58:37.313Z,97571.03
2023-02-02T05:01:03.701Z,97572.03
2023-02-02T05:03:30.137Z,97569.66
2023-02-02T05:05:56.494Z,97569.72
2023-02-02T05:08:22.859Z,97577.34
2023-02-02T05:10:49.263Z,97586.09
2023-02-02T05:13:15.647Z,97594.53
2023-02-02T05:15:42.033Z,97586.00
2023-02-02T05:18:08.378Z,97580.19
2023-02-02T05:20:34.763Z,97592.44
2023-02-02T05:23:01.107Z,97589.16
2023-02-02T05:25:27.622Z,97596.28
2023-02-02T05:27:54.128Z,97601.06
2023-02-02T05:30:20.530Z,97587.50
2023-02-02T05:32:46.931Z,97598.28
2023-02-02T05:35:13.293Z,97593.41
2023-02-02T05:37:39.696Z,97585.94
2023-02-02T05:40:06.092Z,97589.91
2023-02-02T05:42:32.470Z,97591.16
2023-02-02T05:44:58.822Z,97594.75
2023-02-02T05:47:25.166Z,97592.25
2023-02-02T05:49:51.561Z,97592.72
2023-02-02T05:52:17.968Z,97581.84
2023-02-02T05:54:44.424Z,97594.19
2023-02-02T05:57:10.857Z,97590.56
2023-02-02T05:59:37.257Z,97588.66
2023-02-02T06:02:03.630Z,97587.13
2023-02-02T06:04:30.021Z,97593.69
2023-02-02T06:06:56.407Z,97594.41
2023-02-02T06:09:22.774Z,97603.56
2023-02-02T06:11:49.165Z,97604.34
2023-02-02T06:14:15.557Z,97613.56
2023-02-02T06:16:41.968Z,97616.03
2023-02-02T06:19:08.375Z,97623.97
2023-02-02T06:21:34.797Z,97629.56
2023-02-02T06:24:01.192Z,97618.56
2023-02-02T06:26:27.631Z,97611.38
2023-02-02T06:28:53.999Z,97612.94
2023-02-02T06:31:20.483Z,97621.50
2023-02-02T06:33:46.956Z,97616.28
2023-02-02T06:36:13.311Z,97611.53
2023-02-02T06:38:39.692Z,97614.06
2023-02-02T06:41:06.081Z,97614.78
2023-02-02T06:43:32.466Z,97615.63
2023-02-02T06:45:58.910Z,97606.97
2023-02-02T06:48:25.323Z,97602.13
2023-02-02T06:50:51.705Z,97603.63
2023-02-02T06:53:18.061Z,97603.34
2023-02-02T06:55:44.449Z,97598.97
2023-02-02T06:58:10.845Z,97604.41
2023-02-02T07:00:37.195Z,97601.16
2023-02-02T07:03:03.596Z,97606.00
2023-02-02T07:05:30.895Z,97619.13
2023-02-02T07:07:57.473Z,97616.84
2023-02-02T07:11:11.331Z,97626.78
2023-02-02T07:13:10.239Z,97633.44
2023-02-02T07:15:36.655Z,97628.09
2023-02-02T07:18:03.135Z,97621.56
2023-02-02T07:20:29.596Z,97627.88
2023-02-02T07:22:56.046Z,97629.13
2023-02-02T07:25:22.563Z,97628.00
2023-02-02T07:27:49.056Z,97632.13
2023-02-02T07:30:15.430Z,97635.59
2023-02-02T07:32:41.825Z,97633.69
2023-02-02T07:35:08.178Z,97632.28
2023-02-02T07:37:34.563Z,97634.72
2023-02-02T07:40:00.922Z,97644.47
2023-02-02T07:42:27.270Z,97646.81
2023-02-02T07:44:53.644Z,97657.72
2023-02-02T07:47:20.035Z,97656.56
2023-02-02T07:49:46.420Z,97668.72
2023-02-02T07:52:12.774Z,97668.72
2023-02-02T07:54:39.119Z,97664.50
2023-02-02T07:57:05.521Z,97662.44
2023-02-02T07:59:32.542Z,97664.88
2023-02-02T08:01:59.008Z,97667.13
2023-02-02T08:04:25.408Z,97661.47
2023-02-02T08:06:51.781Z,97656.31
2023-02-02T08:09:18.175Z,97662.47
2023-02-02T08:11:44.536Z,97660.41
2023-02-02T08:14:10.893Z,97661.06
2023-02-02T08:16:37.371Z,97659.34
2023-02-02T08:19:03.882Z,97651.81
2023-02-02T08:21:30.231Z,97641.19
2023-02-02T08:23:56.581Z,97648.22
2023-02-02T08:26:23.048Z,97650.06
2023-02-02T08:28:49.437Z,97657.69
2023-02-02T08:31:15.832Z,97657.09
2023-02-02T08:33:42.286Z,97653.09
2023-02-02T08:36:08.743Z,97652.06
2023-02-02T08:38:35.131Z,97656.31
2023-02-02T08:41:01.552Z,97663.59
2023-02-02T08:43:27.907Z,97663.41
2023-02-02T08:46:04.399Z,97660.41
2023-02-02T08:48:31.535Z,97666.84
2023-02-02T08:50:58.142Z,97680.50
2023-02-02T08:53:24.529Z,97678.50
2023-02-02T08:55:50.873Z,97687.63
2023-02-02T08:58:17.253Z,97688.97
2023-02-02T09:00:43.650Z,97690.59
2023-02-02T09:03:10.032Z,97696.69
2023-02-02T09:05:36.396Z,97691.06
2023-02-02T09:08:02.782Z,97695.91
2023-02-02T09:10:29.170Z,97701.97
2023-02-02T09:12:55.521Z,97693.88
2023-02-02T09:15:22.061Z,97699.56
2023-02-02T09:17:48.597Z,97704.38
2023-02-02T09:20:15.032Z,97703.56
2023-02-02T09:22:41.420Z,97702.34
2023-02-02T09:25:07.784Z,97701.78
2023-02-02T09:27:34.153Z,97702.97
2023-02-02T09:30:00.539Z,97700.53
2023-02-02T09:32:26.907Z,97701.16
2023-02-02T09:34:53.297Z,97692.22
2023-02-02T09:37:19.662Z,97691.81
2023-02-02T09:39:46.049Z,97699.88
2023-02-02T09:42:12.410Z,97699.28
2023-02-02T09:44:38.815Z,97696.44
2023-02-02T09:47:05.212Z,97696.22
2023-02-02T09:49:31.565Z,97696.19
2023-02-02T09:51:57.909Z,97692.13
2023-02-02T09:54:24.286Z,97686.06
2023-02-02T09:56:50.696Z,97686.06
2023-02-02T09:59:20.986Z,97687.25
2023-02-02T10:01:48.203Z,97694.06
2023-02-02T10:04:14.617Z,97694.66
2023-02-02T10:06:41.073Z,97704.56
2023-02-02T10:09:07.466Z,97697.41
2023-02-02T10:11:33.842Z,97707.84
2023-02-02T10:14:00.234Z,97702.97
2023-02-02T10:16:26.577Z,97704.19
2023-02-02T10:18:52.926Z,97702.41
2023-02-02T10:21:19.308Z,97693.81
2023-02-02T10:23:45.684Z,97697.59
2023-02-02T10:26:12.081Z,97708.25
2023-02-02T10:28:38.477Z,97712.69
2023-02-02T10:31:04.931Z,97718.75
2023-02-02T10:33:31.334Z,97720.16
2023-02-02T10:35:57.717Z,97712.69
2023-02-02T10:38:24.068Z,97729.69
2023-02-02T10:40:50.454Z,97728.47
2023-02-02T10:43:16.818Z,97726.84
2023-02-02T10:45:43.149Z,97733.09
2023-02-02T10:48:09.524Z,97732.97
2023-02-02T10:50:35.926Z,97735.78
2023-02-02T10:53:02.328Z,97733.56
2023-02-02T10:55:28.702Z,97732.13
2023-02-02T10:57:55.091Z,97735.00
2023-02-02T11:00:23.149Z,97742.44
2023-02-02T11:02:49.906Z,97731.31
2023-02-02T11:05:16.375Z,97732.13
2023-02-02T11:07:42.720Z,97741.03
2023-02-02T11:10:09.109Z,97736.00
2023-02-02T11:12:35.503Z,97729.84
2023-02-02T11:15:01.856Z,97729.41
2023-02-02T11:17:28.259Z,97727.81
2023-02-02T11:19:54.610Z,97731.47
2023-02-02T11:22:20.996Z,97739.06
2023-02-02T11:24:47.377Z,97732.38
2023-02-02T11:27:13.750Z,97732.88
2023-02-02T11:29:40.101Z,97724.47
2023-02-02T11:32:06.490Z,97732.13
2023-02-02T11:34:32.896Z,97723.03
2023-02-02T11:36:59.258Z,97724.75
2023-02-02T11:39:25.649Z,97724.44
2023-02-02T11:41:52.040Z,97725.75
2023-02-02T11:44:18.390Z,97725.38
2023-02-02T11:46:44.852Z,97722.53
2023-02-02T11:49:11.273Z,97719.66
2023-02-02T11:51:37.628Z,97729.81
2023-02-02T11:54:03.971Z,97732.66
2023-02-02T11:56:30.319Z,97725.56
2023-02-02T11:58:56.676Z,97715.25
2023-02-02T12:01:23.022Z,97711.25
2023-02-02T12:03:49.454Z,97710.06
2023-02-02T12:06:15.843Z,97703.91
2023-02-02T12:08:42.223Z,97705.22
2023-02-02T12:11:08.628Z,97708.59
2023-02-02T12:13:34.975Z,97693.56
2023-02-02T12:16:01.546Z,97688.34
2023-02-02T12:18:27.978Z,97686.59
2023-02-02T12:20:54.340Z,97684.59
2023-02-02T12:23:20.681Z,97688.41
2023-02-02T12:25:47.050Z,97687.63
2023-02-02T12:28:13.443Z,97685.84
2023-02-02T12:30:39.838Z,97701.22
2023-02-02T12:33:06.271Z,97694.59
2023-02-02T12:35:32.623Z,97691.63
2023-02-02T12:37:58.963Z,97692.28
2023-02-02T12:40:25.621Z,97702.34
2023-02-02T12:42:52.183Z,97695.47
2023-02-02T12:45:18.649Z,97696.28
2023-02-02T12:47:44.985Z,97693.47
2023-02-02T12:50:11.384Z,97696.50
2023-02-02T12:52:37.777Z,97685.97
2023-02-02T12:55:04.139Z,97690.78
2023-02-02T12:57:30.940Z,97691.25
2023-02-02T12:59:57.316Z,97694.41
2023-02-02T13:02:23.722Z,97688.63
2023-02-02T13:04:52.875Z,97700.50
2023-02-02T13:07:19.172Z,97706.19
2023-02-02T13:09:45.473Z,97704.59
2023-02-02T13:12:11.767Z,97700.50
2023-02-02T13:14:38.052Z,97703.31
2023-02-02T13:17:04.339Z,97701.56
2023-02-02T13:19:30.631Z,97697.31
2023-02-02T13:21:56.939Z,97689.78
2023-02-02T13:24:23.220Z,97686.09
2023-02-02T13:26:49.593Z,97678.50
2023-02-02T13:29:15.946Z,97678.25
2023-02-02T13:31:42.300Z,97677.50
2023-02-02T13:34:08.665Z,97681.25
2023-02-02T13:36:34.953Z,97679.22
2023-02-02T13:39:01.263Z,97675.56
2023-02-02T13:41:27.757Z,97686.16
2023-02-02T13:43:54.044Z,97690.06
2023-02-02T13:46:20.384Z,97700.97
2023-02-02T13:48:46.704Z,97696.47
2023-02-02T13:51:13.005Z,97710.97
2023-02-02T13:53:39.316Z,97700.19
2023-02-02T13:56:05.612Z,97701.41
2023-02-02T13:58:31.926Z,97693.75
2023-02-02T14:00:58.240Z,97701.63
2023-02-02T14:03:24.561Z,97703.75
2023-02-02T14:05:50.890Z,97699.69
2023-02-02T14:08:17.187Z,97697.44
2023-02-02T14:10:43.487Z,97694.97
2023-02-02T14:13:09.786Z,97696.16
2023-02-02T14:15:36.091Z,97697.94
2023-02-02T14:18:02.400Z,97699.53
2023-02-02T14:20:28.697Z,97703.16
2023-02-02T14:22:54.994Z,97700.34
2023-02-02T14:25:21.291Z,97709.38
2023-02-02T14:27:47.577Z,97711.91
2023-02-02T14:30:13.864Z,97716.59
2023-02-02T14:32:40.157Z,97720.56
2023-02-02T14:35:06.455Z,97726.28
2023-02-02T14:37:32.738Z,97719.50
2023-02-02T14:39:59.132Z,97724.81
2023-02-02T14:42:25.434Z,97736.09
2023-02-02T14:44:51.720Z,97736.13
2023-02-02T14:47:18.011Z,97731.78
2023-02-02T14:49:44.310Z,97732.31
2023-02-02T14:52:10.898Z,97743.47
2023-02-02T14:54:37.213Z,97738.94
2023-02-02T14:57:03.504Z,97741.50
2023-02-02T14:59:29.788Z,97741.09
2023-02-02T15:01:56.181Z,97739.19
2023-02-02T15:04:22.499Z,97730.63
2023-02-02T15:06:48.781Z,97735.09
2023-02-02T15:09:15.135Z,97745.69
2023-02-02T15:11:41.441Z,97739.63
2023-02-02T15:14:07.729Z,97734.72
2023-02-02T15:16:34.009Z,97739.53
2023-02-02T15:19:00.300Z,97741.16
2023-02-02T15:21:26.595Z,97737.91
2023-02-02T15:23:52.884Z,97744.44
2023-02-02T15:26:19.209Z,97746.00
2023-02-02T15:28:45.548Z,97736.97
2023-02-02T15:31:12.010Z,97744.31
2023-02-02T15:33:38.376Z,97746.78
2023-02-02T15:36:04.684Z,97743.44
2023-02-02T15:38:30.969Z,97750.31
2023-02-02T15:40:57.255Z,97747.34
2023-02-02T15:43:23.531Z,97747.56
2023-02-02T15:45:49.838Z,97746.28
2023-02-02T15:48:16.143Z,97743.66
2023-02-02T15:50:42.442Z,97743.13
2023-02-02T15:53:08.726Z,97738.63
2023-02-02T15:55:35.012Z,97740.78
2023-02-02T15:58:01.319Z,97741.78
2023-02-02T16:00:27.692Z,97749.06
2023-02-02T16:02:54.072Z,97736.53
2023-02-02T16:05:20.350Z,97752.72
2023-02-02T16:07:53.201Z,97759.06
2023-02-02T16:10:22.577Z,97766.09
2023-02-02T16:12:48.871Z,97775.00
2023-02-02T16:15:15.166Z,97782.94
2023-02-02T16:17:41.461Z,97787.56
2023-02-02T16:20:07.748Z,97790.84
2023-02-02T16:22:34.040Z,97794.47
2023-02-02T16:25:00.327Z,97792.84
2023-02-02T16:27:26.621Z,97788.78
2023-02-02T16:29:52.915Z,97783.97
2023-02-02T16:32:19.216Z,97790.44
2023-02-02T16:34:46.728Z,97793.66
2023-02-02T16:37:13.359Z,97802.13
2023-02-02T16:39:39.665Z,97802.34
2023-02-02T16:42:05.945Z,97804.09
2023-02-02T16:44:32.253Z,97810.13
2023-02-02T16:46:58.549Z,97810.56
2023-02-02T16:49:24.833Z,97805.75
2023-02-02T16:51:51.248Z,97812.19
2023-02-02T16:54:17.572Z,97801.69
2023-02-02T16:56:43.865Z,97813.25
2023-02-02T16:59:10.161Z,97818.31
2023-02-02T17:01:36.474Z,97816.06
2023-02-02T17:04:02.779Z,97817.06
2023-02-02T17:06:38.395Z,97827.94
2023-02-02T17:09:12.420Z,97828.28
2023-02-02T17:11:38.771Z,97831.94
2023-02-02T17:14:05.090Z,97833.53
2023-02-02T17:16:31.395Z,97829.50
2023-02-02T17:18:57.716Z,97829.09
2023-02-02T17:21:24.030Z,97826.06
2023-02-02T17:23:50.332Z,97831.13
2023-02-02T17:26:16.617Z,97840.38
2023-02-02T17:28:42.908Z,97825.47
2023-02-02T17:31:09.291Z,97843.47
2023-02-02T17:33:35.718Z,97835.72
2023-02-02T17:36:02.008Z,97842.94
2023-02-02T17:38:28.295Z,97844.00
2023-02-02T17:40:54.601Z,97843.75
2023-02-02T17:43:20.923Z,97841.16
2023-02-02T17:45:47.305Z,97836.63
2023-02-02T17:48:13.623Z,97836.25
2023-02-02T17:50:39.924Z,97832.75
2023-02-02T17:53:06.216Z,97831.47
2023-02-02T17:55:32.546Z,97829.59
2023-02-02T17:57:58.860Z,97835.66
2023-02-02T18:00:25.339Z,97831.97
2023-02-02T18:02:51.844Z,97831.88
2023-02-02T18:05:18.159Z,97827.53
2023-02-02T18:07:44.469Z,97835.97
2023-02-02T18:10:10.773Z,97834.13
2023-02-02T18:12:37.073Z,97835.63
2023-02-02T18:15:03.367Z,97839.81
2023-02-02T18:17:29.657Z,97835.41
2023-02-02T18:19:55.956Z,97824.66
2023-02-02T18:22:22.276Z,97823.91
2023-02-02T18:24:48.599Z,97824.47
2023-02-02T18:27:15.050Z,97823.25
2023-02-02T18:29:41.351Z,97822.00
2023-02-02T18:32:07.720Z,97827.72
2023-02-02T18:34:34.038Z,97821.72
2023-02-02T18:37:00.355Z,97818.78
2023-02-02T18:39:26.656Z,97822.88
2023-02-02T18:41:52.980Z,97819.25
2023-02-02T18:44:19.424Z,97811.13
2023-02-02T18:46:45.957Z,97812.00
2023-02-02T18:49:12.324Z,97821.53
2023-02-02T18:51:38.642Z,97820.00
2023-02-02T18:54:04.958Z,97816.13
2023-02-02T18:56:31.279Z,97817.00
2023-02-02T18:58:57.577Z,97824.28
2023-02-02T19:01:23.958Z,97832.91
2023-02-02T19:03:50.293Z,97830.41
2023-02-02T19:06:16.638Z,97819.69
2023-02-02T19:08:42.925Z,97832.41
2023-02-02T19:11:09.236Z,97824.31
2023-02-02T19:13:35.538Z,97825.25
2023-02-02T19:16:01.844Z,97824.09
2023-02-02T19:18:28.192Z,97828.03
2023-02-02T19:20:54.482Z,97826.22
2023-02-02T19:23:20.776Z,97829.22
2023-02-02T19:25:48.895Z,97828.03
2023-02-02T19:28:17.093Z,97822.44
2023-02-02T19:30:43.411Z,97831.97
2023-02-02T19:33:09.717Z,97831.13
2023-02-02T19:35:36.012Z,97838.88
2023-02-02T19:38:02.329Z,97840.53
2023-02-02T19:40:28.889Z,97846.06
2023-02-02T19:42:55.309Z,97844.59
2023-02-02T19:45:21.601Z,97852.47
2023-02-02T19:47:47.880Z,97834.66
2023-02-02T19:50:14.195Z,97840.78
2023-02-02T19:52:40.480Z,97838.69
2023-02-02T19:55:06.769Z,97849.06
2023-02-02T19:57:33.073Z,97845.34
2023-02-02T19:59:59.367Z,97847.16
2023-02-02T20:02:25.669Z,97847.44
2023-02-02T20:04:51.965Z,97848.03
2023-02-02T20:07:18.276Z,97848.19
2023-02-02T20:09:44.563Z,97847.19
2023-02-02T20:12:10.847Z,97848.19
2023-02-02T20:14:37.233Z,97846.06
2023-02-02T20:17:03.738Z,97839.84
2023-02-02T20:19:30.039Z,97839.09
2023-02-02T20:21:56.343Z,97840.38
2023-02-02T20:24:22.657Z,97842.59
2023-02-02T20:26:49.094Z,97830.47
2023-02-02T20:29:15.414Z,97832.63
2023-02-02T20:31:41.730Z,97831.03
2023-02-02T20:34:08.989Z,97830.13
2023-02-02T20:36:35.316Z,97830.13
2023-02-02T20:39:01.616Z,97827.84
2023-02-02T20:41:27.945Z,97837.25
2023-02-02T20:43:54.240Z,97836.25
2023-02-02T20:46:20.691Z,97828.91
2023-02-02T20:48:47.040Z,97836.25
2023-02-02T20:51:13.345Z,97833.47
2023-02-02T20:53:39.843Z,97828.53
2023-02-02T20:56:06.149Z,97834.50
2023-02-02T20:58:32.486Z,97831.03
2023-02-02T21:00:58.809Z,97831.13
2023-02-02T21:03:26.926Z,97839.59
2023-02-02T21:06:04.620Z,97851.94
2023-02-02T21:08:33.454Z,97838.25
2023-02-02T21:10:59.960Z,97845.66
2023-02-02T21:13:26.251Z,97843.97
2023-02-02T21:15:52.569Z,97848.41
2023-02-02T21:18:18.877Z,97846.66
2023-02-02T21:20:45.192Z,97846.41
2023-02-02T21:23:11.668Z,97843.91
2023-02-02T21:25:37.985Z,97844.22
2023-02-02T21:28:04.467Z,97850.81
2023-02-02T21:30:31.178Z,97845.47
2023-02-02T21:32:57.650Z,97841.91
2023-02-02T21:35:23.957Z,97846.41
2023-02-02T21:37:50.249Z,97848.75
2023-02-02T21:40:16.532Z,97850.56
2023-02-02T21:42:42.815Z,97855.69
2023-02-02T21:45:09.124Z,97851.06
2023-02-02T21:47:35.518Z,97861.91
2023-02-02T21:50:01.874Z,97857.03
2023-02-02T21:52:28.196Z,97856.50
2023-02-02T21:54:54.497Z,97855.78
2023-02-02T21:57:20.802Z,97858.91
2023-02-02T21:59:47.104Z,97863.09
2023-02-02T22:02:13.393Z,97869.25
2023-02-02T22:04:39.749Z,97877.69
2023-02-02T22:07:06.054Z,97877.00
2023-02-02T22:09:32.339Z,97876.81
2023-02-02T22:11:58.653Z,97881.47
2023-02-02T22:14:24.972Z,97885.84
2023-02-02T22:16:51.266Z,97891.72
2023-02-02T22:19:17.552Z,97889.16
2023-02-02T22:21:43.893Z,97893.44
2023-02-02T22:24:10.189Z,97894.47
2023-02-02T22:26:36.487Z,97899.25
2023-02-02T22:29:02.785Z,97893.09
2023-02-02T22:31:29.209Z,97889.41
2023-02-02T22:33:55.695Z,97896.38
2023-02-02T22:36:21.994Z,97893.56
2023-02-02T22:38:48.274Z,97894.88
2023-02-02T22:41:14.589Z,97896.94
2023-02-02T22:43:40.916Z,97907.38
2023-02-02T22:46:07.349Z,97906.75
2023-02-02T22:48:33.687Z,97905.28
2023-02-02T22:50:59.966Z,97908.13
2023-02-02T22:53:26.281Z,97911.25
2023-02-02T22:55:52.570Z,97913.16
2023-02-02T22:58:19.114Z,97901.06
2023-02-02T23:00:45.398Z,97911.94
2023-02-02T23:03:11.705Z,97911.97
2023-02-02T23:05:38.028Z,97919.31
2023-02-02T23:08:04.340Z,97920.72
2023-02-02T23:10:30.648Z,97923.97
2023-02-02T23:12:56.958Z,97925.59
2023-02-02T23:15:23.291Z,97934.06
2023-02-02T23:17:49.599Z,97936.69
2023-02-02T23:20:15.920Z,97940.66
2023-02-02T23:22:42.258Z,97950.56
2023-02-02T23:25:08.568Z,97954.88
2023-02-02T23:27:34.871Z,97954.09
2023-02-02T23:30:01.188Z,97955.19
2023-02-02T23:32:27.648Z,97965.81
2023-02-02T23:34:53.955Z,97971.84
2023-02-02T23:37:20.261Z,97975.91
2023-02-02T23:39:46.552Z,97967.25
2023-02-02T23:42:12.847Z,97965.09
2023-02-02T23:44:39.142Z,97964.69
2023-02-02T23:47:05.450Z,97967.81
2023-02-02T23:49:31.747Z,97957.09
2023-02-02T23:51:58.047Z,97968.97
2023-02-02T23:54:24.369Z,97972.69
2023-02-02T23:56:50.673Z,97968.34
2023-02-02T23:59:16.976Z,97969.97
